Time;durP1;ratioP1;P1;durP2;ratioP2;P2;SDS_P1;SDS_P2;PMS_P1;PMS_P2;Temp;Humidity;BMP_temperature;BMP_pressure;BME280_temperature;BME280_humidity;BME280_pressure;Samples;Min_cycle;Max_cycle;Signal;HPM_P1;HPM_P2
2021/05/05 00:00:11;;;;;;;9.87;2.10;;;;;;;;;;4992234;28;42474;-80
2021/05/05 00:02:39;;;;;;;15.30;2.20;;;;;;;;;;4999534;28;39095;-79
2021/05/05 00:05:05;;;;;;;10.53;2.10;;;;;;;;;;5012184;28;38292;-79
2021/05/05 00:07:31;;;;;;;10.10;1.93;;;;;;;;;;4995064;28;36277;-80
2021/05/05 00:09:58;;;;;;;13.80;2.07;;;;;;;;;;4995224;28;37673;-79
2021/05/05 00:12:24;;;;;;;10.67;2.53;;;;;;;;;;5009737;28;38548;-80
2021/05/05 00:14:51;;;;;;;9.07;1.77;;;;;;;;;;5010457;28;38515;-79
2021/05/05 00:17:17;;;;;;;12.50;2.40;;;;;;;;;;5009043;28;37732;-79
2021/05/05 00:19:43;;;;;;;13.17;1.83;;;;;;;;;;5012616;28;39313;-79
2021/05/05 00:22:10;;;;;;;11.00;1.77;;;;;;;;;;4994611;28;38179;-79
2021/05/05 00:24:36;;;;;;;13.53;2.20;;;;;;;;;;5010575;28;38804;-79
2021/05/05 00:27:02;;;;;;;6.77;2.00;;;;;;;;;;4988391;28;37907;-78
2021/05/05 00:29:29;;;;;;;11.70;3.03;;;;;;;;;;4991842;28;39320;-79
2021/05/05 00:31:55;;;;;;;14.90;2.03;;;;;;;;;;5005339;28;38993;-79
2021/05/05 00:34:22;;;;;;;14.90;2.00;;;;;;;;;;5012910;28;37872;-79
2021/05/05 00:36:48;;;;;;;8.27;1.83;;;;;;;;;;5011082;28;35257;-79
2021/05/05 00:39:15;;;;;;;9.00;1.67;;;;;;;;;;5002199;28;39432;-79
2021/05/05 00:41:41;;;;;;;10.67;2.40;;;;;;;;;;4992208;28;38360;-79
2021/05/05 00:44:07;;;;;;;12.80;1.90;;;;;;;;;;4995246;28;38519;-79
2021/05/05 00:46:34;;;;;;;10.53;2.30;;;;;;;;;;5006883;28;37227;-79
2021/05/05 00:49:00;;;;;;;11.63;2.03;;;;;;;;;;5002025;28;38989;-79
2021/05/05 00:51:27;;;;;;;11.23;2.10;;;;;;;;;;4993454;28;37125;-79
2021/05/05 00:53:53;;;;;;;14.20;2.77;;;;;;;;;;5010962;28;36980;-79
2021/05/05 00:56:19;;;;;;;8.27;2.03;;;;;;;;;;5006436;28;37084;-79
2021/05/05 00:58:46;;;;;;;11.60;2.20;;;;;;;;;;5009497;28;38506;-79
2021/05/05 01:01:12;;;;;;;9.43;1.70;;;;;;;;;;4994647;28;39387;-80
2021/05/05 01:03:38;;;;;;;10.23;1.97;;;;;;;;;;5009328;28;37975;-79
2021/05/05 01:06:05;;;;;;;9.93;2.13;;;;;;;;;;5001991;28;37150;-80
2021/05/05 01:08:32;;;;;;;7.63;2.13;;;;;;;;;;4998896;28;39765;-79
2021/05/05 01:11:00;;;;;;;8.20;2.03;;;;;;;;;;4996612;28;39211;-79
2021/05/05 01:13:27;;;;;;;12.43;2.37;;;;;;;;;;5017022;28;38199;-79
2021/05/05 01:15:54;;;;;;;10.17;2.00;;;;;;;;;;5010562;28;36446;-79
2021/05/05 01:18:20;;;;;;;14.67;3.50;;;;;;;;;;5012444;28;39142;-79
2021/05/05 01:20:47;;;;;;;13.57;2.13;;;;;;;;;;5008200;28;37233;-79
2021/05/05 01:23:13;;;;;;;11.13;2.00;;;;;;;;;;5012085;28;39712;-79
2021/05/05 01:25:40;;;;;;;13.23;2.53;;;;;;;;;;5010271;28;36879;-80
2021/05/05 01:28:06;;;;;;;18.50;2.93;;;;;;;;;;5005795;28;40411;-80
2021/05/05 01:30:32;;;;;;;8.33;2.70;;;;;;;;;;5007960;28;39496;-80
2021/05/05 01:32:59;;;;;;;13.20;2.70;;;;;;;;;;5009024;28;38584;-80
2021/05/05 01:35:25;;;;;;;12.23;3.10;;;;;;;;;;5012363;28;37176;-82
2021/05/05 01:37:52;;;;;;;21.13;3.43;;;;;;;;;;4989680;28;38632;-79
2021/05/05 01:40:23;;;;;;;15.67;3.70;;;;;;;;;;4996871;28;38817;-80
2021/05/05 01:42:49;;;;;;;14.03;3.53;;;;;;;;;;4998713;28;38202;-80
2021/05/05 01:45:16;;;;;;;15.60;3.27;;;;;;;;;;5010118;28;36993;-80
2021/05/05 01:47:42;;;;;;;16.60;3.00;;;;;;;;;;4989030;28;39001;-80
2021/05/05 01:50:09;;;;;;;13.47;3.40;;;;;;;;;;5004548;28;39038;-79
2021/05/05 01:52:36;;;;;;;14.27;2.97;;;;;;;;;;5010645;28;38554;-79
2021/05/05 01:55:02;;;;;;;19.97;3.27;;;;;;;;;;4996354;28;35355;-78
2021/05/05 01:57:30;;;;;;;17.77;3.13;;;;;;;;;;5016300;28;39371;-79
2021/05/05 01:59:57;;;;;;;16.87;3.70;;;;;;;;;;5003114;28;39036;-78
2021/05/05 02:02:23;;;;;;;23.33;3.77;;;;;;;;;;4998371;28;36875;-79
2021/05/05 02:04:49;;;;;;;17.60;3.20;;;;;;;;;;5010077;28;35814;-79
2021/05/05 02:07:16;;;;;;;11.40;3.17;;;;;;;;;;5015671;28;39255;-80
2021/05/05 02:09:42;;;;;;;13.37;3.27;;;;;;;;;;5021701;28;38406;-80
2021/05/05 02:12:09;;;;;;;11.07;2.80;;;;;;;;;;5015926;28;38099;-80
2021/05/05 02:14:35;;;;;;;13.80;3.13;;;;;;;;;;5010446;28;37011;-79
2021/05/05 02:17:02;;;;;;;12.40;2.70;;;;;;;;;;4994350;28;38448;-77
2021/05/05 02:19:28;;;;;;;12.00;2.30;;;;;;;;;;5013728;28;39218;-79
2021/05/05 02:21:56;;;;;;;12.67;2.77;;;;;;;;;;4998974;28;36945;-79
2021/05/05 02:24:22;;;;;;;13.77;2.13;;;;;;;;;;5003803;28;35739;-79
2021/05/05 02:26:48;;;;;;;7.40;1.70;;;;;;;;;;5011626;28;39173;-79
2021/05/05 02:29:15;;;;;;;5.33;1.20;;;;;;;;;;5017073;28;38518;-79
2021/05/05 02:31:41;;;;;;;3.57;1.10;;;;;;;;;;4994945;28;38976;-79
2021/05/05 02:34:07;;;;;;;5.20;1.60;;;;;;;;;;5004161;28;37518;-79
2021/05/05 02:36:34;;;;;;;9.13;2.00;;;;;;;;;;5003311;28;37642;-79
2021/05/05 02:39:01;;;;;;;9.90;1.80;;;;;;;;;;5012885;28;38718;-78
2021/05/05 02:41:28;;;;;;;5.33;1.30;;;;;;;;;;5014250;28;48412;-78
2021/05/05 02:43:54;;;;;;;7.57;1.83;;;;;;;;;;5015775;28;36576;-78
2021/05/05 02:46:20;;;;;;;4.20;1.20;;;;;;;;;;5001705;28;39019;-78
2021/05/05 02:48:48;;;;;;;6.23;1.30;;;;;;;;;;5023473;28;38656;-79
2021/05/05 02:51:14;;;;;;;3.00;0.90;;;;;;;;;;5027976;28;38365;-79
2021/05/05 02:53:40;;;;;;;3.23;1.07;;;;;;;;;;5025237;28;37253;-78
2021/05/05 02:56:07;;;;;;;1.50;0.57;;;;;;;;;;4999373;28;39152;-79
2021/05/05 02:58:33;;;;;;;4.40;1.10;;;;;;;;;;5010042;28;38714;-79
2021/05/05 03:01:00;;;;;;;4.63;1.00;;;;;;;;;;5000859;28;37951;-80
2021/05/05 03:03:26;;;;;;;5.23;1.40;;;;;;;;;;5006916;28;37704;-80
2021/05/05 03:05:53;;;;;;;4.90;1.50;;;;;;;;;;4996573;28;37942;-80
2021/05/05 03:08:20;;;;;;;5.40;1.40;;;;;;;;;;5003758;28;38547;-80
2021/05/05 03:10:47;;;;;;;6.37;2.17;;;;;;;;;;5015450;28;38327;-80
2021/05/05 03:13:13;;;;;;;7.33;1.77;;;;;;;;;;5004484;28;35538;-80
2021/05/05 03:15:40;;;;;;;13.00;2.17;;;;;;;;;;5000348;28;39047;-79
2021/05/05 03:18:07;;;;;;;9.37;2.17;;;;;;;;;;4999534;28;39224;-79
2021/05/05 03:20:33;;;;;;;7.10;1.83;;;;;;;;;;5003095;28;39084;-81
2021/05/05 03:23:00;;;;;;;5.77;2.50;;;;;;;;;;5007069;28;37894;-81
2021/05/05 03:25:27;;;;;;;13.37;2.80;;;;;;;;;;5008674;28;40604;-80
2021/05/05 03:27:54;;;;;;;6.73;1.80;;;;;;;;;;5030010;28;38630;-80
2021/05/05 03:30:21;;;;;;;8.13;2.20;;;;;;;;;;5013128;28;36911;-80
2021/05/05 03:32:47;;;;;;;6.63;1.80;;;;;;;;;;5004360;28;36006;-80
2021/05/05 03:35:13;;;;;;;7.67;2.10;;;;;;;;;;5019903;28;39443;-80
2021/05/05 03:37:40;;;;;;;8.77;2.10;;;;;;;;;;5014439;28;38621;-80
2021/05/05 03:40:07;;;;;;;10.57;2.13;;;;;;;;;;4999807;28;39023;-79
2021/05/05 03:42:34;;;;;;;8.10;1.80;;;;;;;;;;5002468;28;36562;-80
2021/05/05 03:45:01;;;;;;;5.63;2.43;;;;;;;;;;5016179;28;39746;-78
2021/05/05 03:47:27;;;;;;;6.47;2.07;;;;;;;;;;4994583;28;37502;-79
2021/05/05 03:49:53;;;;;;;6.17;1.73;;;;;;;;;;5019531;28;38823;-80
2021/05/05 03:52:21;;;;;;;3.80;1.10;;;;;;;;;;5010802;28;37523;-79
2021/05/05 03:54:47;;;;;;;5.33;1.50;;;;;;;;;;5015613;28;39811;-79
2021/05/05 03:57:13;;;;;;;1.80;0.93;;;;;;;;;;4990482;28;37862;-79
2021/05/05 03:59:40;;;;;;;4.47;1.33;;;;;;;;;;5003649;28;37656;-79
2021/05/05 04:02:06;;;;;;;2.83;1.13;;;;;;;;;;5001638;28;37707;-79
2021/05/05 04:04:33;;;;;;;5.10;1.20;;;;;;;;;;4983275;28;39934;-79
2021/05/05 04:06:59;;;;;;;3.00;1.00;;;;;;;;;;5010026;28;38568;-79
2021/05/05 04:09:26;;;;;;;3.27;1.17;;;;;;;;;;5013385;28;38109;-79
2021/05/05 04:11:52;;;;;;;5.07;1.43;;;;;;;;;;5001426;28;35550;-79
2021/05/05 04:14:18;;;;;;;2.57;1.03;;;;;;;;;;5004292;28;39071;-79
2021/05/05 04:16:45;;;;;;;4.10;1.33;;;;;;;;;;4993702;28;38846;-80
2021/05/05 04:19:11;;;;;;;9.80;1.60;;;;;;;;;;4983474;28;39906;-79
2021/05/05 04:21:37;;;;;;;7.53;1.50;;;;;;;;;;5004398;28;36814;-79
2021/05/05 04:24:05;;;;;;;5.53;1.40;;;;;;;;;;5003349;28;38832;-78
2021/05/05 04:26:31;;;;;;;7.20;1.60;;;;;;;;;;5003730;28;40232;-79
2021/05/05 04:28:57;;;;;;;5.80;2.10;;;;;;;;;;4988004;28;38164;-79
2021/05/05 04:31:24;;;;;;;9.77;1.87;;;;;;;;;;4982598;28;38586;-79
2021/05/05 04:33:50;;;;;;;7.33;2.37;;;;;;;;;;5003761;28;38722;-79
2021/05/05 04:36:17;;;;;;;6.57;1.83;;;;;;;;;;4988498;28;39121;-79
2021/05/05 04:38:43;;;;;;;10.27;2.00;;;;;;;;;;5005693;28;40274;-79
2021/05/05 04:41:10;;;;;;;15.43;2.30;;;;;;;;;;5003327;28;37769;-78
2021/05/05 04:43:36;;;;;;;11.60;2.40;;;;;;;;;;4985748;28;39279;-79
2021/05/05 04:46:03;;;;;;;10.83;2.80;;;;;;;;;;4985503;28;39136;-78
2021/05/05 04:48:29;;;;;;;8.47;2.37;;;;;;;;;;4996817;28;39140;-78
2021/05/05 04:50:56;;;;;;;13.70;2.80;;;;;;;;;;4981069;28;38391;-79
2021/05/05 04:53:23;;;;;;;10.20;2.03;;;;;;;;;;4996721;28;39256;-78
2021/05/05 04:55:51;;;;;;;5.93;1.60;;;;;;;;;;4981401;28;38378;-79
2021/05/05 04:58:17;;;;;;;9.20;2.40;;;;;;;;;;4987207;28;39858;-79
2021/05/05 05:00:44;;;;;;;10.83;2.03;;;;;;;;;;5002935;28;37996;-79
2021/05/05 05:03:10;;;;;;;13.10;2.07;;;;;;;;;;5002632;28;40904;-78
2021/05/05 05:05:36;;;;;;;5.83;1.90;;;;;;;;;;4985857;28;38400;-78
2021/05/05 05:08:03;;;;;;;11.43;2.63;;;;;;;;;;4993947;28;39839;-78
2021/05/05 05:10:29;;;;;;;10.80;2.73;;;;;;;;;;4985050;28;36807;-79
2021/05/05 05:12:56;;;;;;;19.87;3.00;;;;;;;;;;5000221;28;39703;-79
2021/05/05 05:15:23;;;;;;;14.27;3.43;;;;;;;;;;5004186;28;39128;-78
2021/05/05 05:17:49;;;;;;;10.53;3.07;;;;;;;;;;4980779;28;37139;-78
2021/05/05 05:20:16;;;;;;;14.97;3.20;;;;;;;;;;4998699;28;35095;-78
2021/05/05 05:22:42;;;;;;;11.53;2.77;;;;;;;;;;4990897;28;40316;-78
2021/05/05 05:25:10;;;;;;;17.73;3.57;;;;;;;;;;4991268;28;40043;-78
2021/05/05 05:27:37;;;;;;;16.80;3.30;;;;;;;;;;5002802;28;38432;-79
2021/05/05 05:30:05;;;;;;;10.67;2.70;;;;;;;;;;4985376;28;37339;-78
2021/05/05 05:32:31;;;;;;;12.47;2.97;;;;;;;;;;4985862;28;39660;-79
2021/05/05 05:34:58;;;;;;;12.97;3.30;;;;;;;;;;4989688;28;39218;-79
2021/05/05 05:37:24;;;;;;;15.03;3.70;;;;;;;;;;5005205;28;38428;-78
2021/05/05 05:39:51;;;;;;;13.37;3.43;;;;;;;;;;4986758;28;37519;-78
2021/05/05 05:42:17;;;;;;;14.63;3.13;;;;;;;;;;5001372;28;39525;-78
2021/05/05 05:44:44;;;;;;;14.47;4.93;;;;;;;;;;4987084;28;38600;-78
2021/05/05 05:47:10;;;;;;;21.53;5.07;;;;;;;;;;5001971;28;38069;-78
2021/05/05 05:49:36;;;;;;;20.40;6.20;;;;;;;;;;4987711;28;38603;-78
2021/05/05 05:52:03;;;;;;;25.33;7.90;;;;;;;;;;4989269;28;40685;-78
2021/05/05 05:54:29;;;;;;;20.53;6.73;;;;;;;;;;4995292;28;39449;-78
2021/05/05 05:56:56;;;;;;;21.90;5.53;;;;;;;;;;4977478;28;36967;-78
2021/05/05 05:59:22;;;;;;;15.83;3.63;;;;;;;;;;4981742;28;37395;-77
2021/05/05 06:01:49;;;;;;;14.50;4.10;;;;;;;;;;4998267;28;39480;-78
2021/05/05 06:04:16;;;;;;;20.60;3.20;;;;;;;;;;4995624;28;38492;-77
2021/05/05 06:06:43;;;;;;;20.83;3.70;;;;;;;;;;5005421;28;39502;-77
2021/05/05 06:09:09;;;;;;;32.87;4.53;;;;;;;;;;5007559;28;37060;-77
2021/05/05 06:11:36;;;;;;;18.97;4.10;;;;;;;;;;5008538;28;38944;-77
2021/05/05 06:14:03;;;;;;;16.80;3.40;;;;;;;;;;4985468;28;40025;-77
2021/05/05 06:16:29;;;;;;;13.80;3.10;;;;;;;;;;4985714;28;38880;-77
2021/05/05 06:18:56;;;;;;;13.97;3.47;;;;;;;;;;4997077;28;37499;-77
2021/05/05 06:21:23;;;;;;;23.13;4.13;;;;;;;;;;5005203;28;38801;-77
2021/05/05 06:23:50;;;;;;;16.00;3.77;;;;;;;;;;4987518;28;38132;-77
2021/05/05 06:26:16;;;;;;;8.23;3.07;;;;;;;;;;4984069;28;40133;-77
2021/05/05 06:28:42;;;;;;;15.10;3.10;;;;;;;;;;5004980;28;37399;-78
2021/05/05 06:31:09;;;;;;;14.87;4.27;;;;;;;;;;5004452;28;40003;-78
2021/05/05 06:33:35;;;;;;;17.90;3.43;;;;;;;;;;4988466;28;39966;-77
2021/05/05 06:36:02;;;;;;;13.10;3.30;;;;;;;;;;4999004;28;38589;-77
2021/05/05 06:38:28;;;;;;;12.70;3.03;;;;;;;;;;5000653;28;47258;-77
2021/05/05 06:40:55;;;;;;;14.37;3.07;;;;;;;;;;5000832;28;39764;-77
2021/05/05 06:43:21;;;;;;;13.47;3.73;;;;;;;;;;4992332;28;38648;-77
2021/05/05 06:45:48;;;;;;;11.73;2.80;;;;;;;;;;4985306;28;38978;-77
2021/05/05 06:48:14;;;;;;;12.73;2.83;;;;;;;;;;4998063;28;39962;-77
2021/05/05 06:50:40;;;;;;;15.03;3.40;;;;;;;;;;4986376;28;39096;-78
2021/05/05 06:53:07;;;;;;;23.13;3.20;;;;;;;;;;4984827;28;37472;-77
2021/05/05 06:55:33;;;;;;;18.10;3.33;;;;;;;;;;5001308;28;38600;-77
2021/05/05 06:57:59;;;;;;;14.80;3.73;;;;;;;;;;4987630;28;37594;-77
2021/05/05 07:00:26;;;;;;;18.93;3.47;;;;;;;;;;4985429;28;38104;-77
2021/05/05 07:02:52;;;;;;;17.43;3.97;;;;;;;;;;5003360;28;38792;-77
2021/05/05 07:05:19;;;;;;;21.27;5.33;;;;;;;;;;4980846;28;38992;-77
2021/05/05 07:07:45;;;;;;;13.10;3.37;;;;;;;;;;5001219;28;37000;-77
2021/05/05 07:10:12;;;;;;;12.93;2.67;;;;;;;;;;5001237;28;38465;-77
2021/05/05 07:12:39;;;;;;;16.77;3.10;;;;;;;;;;5006402;28;38121;-77
2021/05/05 07:15:06;;;;;;;11.20;2.40;;;;;;;;;;4988808;28;40037;-77
2021/05/05 07:17:32;;;;;;;12.93;3.27;;;;;;;;;;4989685;28;37515;-77
2021/05/05 07:19:58;;;;;;;13.43;2.20;;;;;;;;;;4994568;28;39135;-78
2021/05/05 07:22:25;;;;;;;17.47;3.90;;;;;;;;;;5005139;28;39421;-77
2021/05/05 07:24:51;;;;;;;19.27;4.00;;;;;;;;;;4989051;28;38540;-77
2021/05/05 07:27:18;;;;;;;17.77;3.33;;;;;;;;;;5008926;28;36860;-77
2021/05/05 07:29:44;;;;;;;12.97;2.93;;;;;;;;;;4988556;28;38893;-77
2021/05/05 07:32:11;;;;;;;19.10;3.47;;;;;;;;;;5004459;28;39529;-78
2021/05/05 07:34:40;;;;;;;21.73;4.63;;;;;;;;;;4999959;28;38079;-77
2021/05/05 07:37:10;;;;;;;15.93;2.93;;;;;;;;;;4978526;28;36598;-77
2021/05/05 07:40:01;;;;;;;10.40;2.33;;;;;;;;;;5001523;28;39658;-77
2021/05/05 07:47:28;;;;;;;9.83;2.80;;;;;;;;;;5007072;28;37866;-78
2021/05/05 07:49:56;;;;;;;17.10;3.20;;;;;;;;;;4988357;28;39752;-78
2021/05/05 07:52:22;;;;;;;13.70;3.37;;;;;;;;;;5007444;28;38772;-77
2021/05/05 07:54:50;;;;;;;20.60;3.80;;;;;;;;;;4984461;28;38631;-78
2021/05/05 07:57:18;;;;;;;12.40;3.03;;;;;;;;;;5000388;28;37168;-78
2021/05/05 07:59:45;;;;;;;14.90;3.00;;;;;;;;;;5007826;28;38782;-77
2021/05/05 08:02:13;;;;;;;11.07;2.80;;;;;;;;;;4989174;28;39431;-77
2021/05/05 08:04:48;;;;;;;15.57;4.10;;;;;;;;;;4991056;28;40038;-77
2021/05/05 08:07:16;;;;;;;17.23;4.10;;;;;;;;;;4979105;28;35728;-78
2021/05/05 08:09:42;;;;;;;15.60;3.90;;;;;;;;;;4982140;28;37906;-77
2021/05/05 08:12:11;;;;;;;17.43;5.17;;;;;;;;;;5002037;28;37383;-78
2021/05/05 08:14:37;;;;;;;14.77;2.87;;;;;;;;;;4998388;28;39908;-77
2021/05/05 08:17:04;;;;;;;14.90;3.17;;;;;;;;;;4996145;28;36644;-77
2021/05/05 08:19:30;;;;;;;18.93;3.40;;;;;;;;;;4997335;28;38904;-78
2021/05/05 08:21:56;;;;;;;12.43;2.90;;;;;;;;;;5002377;28;38277;-78
2021/05/05 08:24:23;;;;;;;13.97;3.40;;;;;;;;;;4986719;28;36927;-77
2021/05/05 08:26:49;;;;;;;14.73;3.27;;;;;;;;;;4846800;28;36937;-77
2021/05/05 08:29:16;;;;;;;9.07;2.30;;;;;;;;;;4990851;28;38654;-79
2021/05/05 08:31:42;;;;;;;9.53;2.13;;;;;;;;;;4985630;28;39445;-77
2021/05/05 08:34:09;;;;;;;12.03;2.40;;;;;;;;;;4979127;28;36686;-78
2021/05/05 08:36:35;;;;;;;15.57;2.40;;;;;;;;;;5003489;28;37995;-77
2021/05/05 08:39:02;;;;;;;16.00;3.27;;;;;;;;;;5004145;28;40086;-77
2021/05/05 08:41:28;;;;;;;16.87;3.40;;;;;;;;;;5000798;28;38409;-77
2021/05/05 08:43:55;;;;;;;15.47;3.50;;;;;;;;;;4984707;28;39009;-77
2021/05/05 08:46:22;;;;;;;13.50;3.30;;;;;;;;;;4988238;28;36960;-77
2021/05/05 08:48:49;;;;;;;12.57;2.77;;;;;;;;;;4993156;28;39094;-77
2021/05/05 08:51:15;;;;;;;8.20;1.93;;;;;;;;;;4997397;28;38098;-79
2021/05/05 08:53:42;;;;;;;9.33;2.87;;;;;;;;;;4982677;28;39618;-79
2021/05/05 08:56:09;;;;;;;15.07;2.87;;;;;;;;;;4985735;28;37175;-79
2021/05/05 08:58:36;;;;;;;14.33;2.53;;;;;;;;;;5000054;28;39937;-79
2021/05/05 09:01:04;;;;;;;12.40;2.47;;;;;;;;;;5003043;28;38548;-79
2021/05/05 09:03:32;;;;;;;14.07;3.00;;;;;;;;;;5005308;28;47201;-79
2021/05/05 09:05:58;;;;;;;9.17;2.47;;;;;;;;;;4987797;28;35836;-78
2021/05/05 09:08:26;;;;;;;15.23;2.80;;;;;;;;;;4980683;28;39435;-79
2021/05/05 09:10:52;;;;;;;16.43;3.83;;;;;;;;;;5003775;28;38639;-78
2021/05/05 09:13:22;;;;;;;12.53;2.67;;;;;;;;;;4996228;28;39441;-79
2021/05/05 09:16:05;;;;;;;6.50;1.47;;;;;;;;;;4999702;28;38641;-79
2021/05/05 09:18:31;;;;;;;;;;;;;;;;;;5007622;28;48434;-79
2021/05/05 09:21:09;;;;;;;6.60;1.17;;;;;;;;;;4985369;28;37662;-79
2021/05/05 09:23:36;;;;;;;6.47;1.70;;;;;;;;;;4997075;28;48333;-78
2021/05/05 09:26:02;;;;;;;12.97;2.10;;;;;;;;;;5004458;28;36643;-77
2021/05/05 09:28:28;;;;;;;10.20;2.50;;;;;;;;;;4988719;28;47242;-80
2021/05/05 09:31:07;;;;;;;11.13;2.30;;;;;;;;;;4990205;28;37582;-79
2021/05/05 09:33:34;;;;;;;5.83;2.53;;;;;;;;;;4972607;28;47152;-78
2021/05/05 09:36:08;;;;;;;19.43;3.83;;;;;;;;;;5002468;28;37746;-79
2021/05/05 09:39:02;;;;;;;11.53;2.97;;;;;;;;;;4975902;28;47313;-78
2021/05/05 09:41:33;;;;;;;14.17;3.30;;;;;;;;;;4991884;28;48985;-78
2021/05/05 09:44:09;;;;;;;15.00;4.07;;;;;;;;;;4996254;28;38494;-79
2021/05/05 09:46:42;;;;;;;15.40;3.70;;;;;;;;;;4991639;28;48789;-78
2021/05/05 09:49:32;;;;;;;12.53;2.80;;;;;;;;;;4982327;28;39392;-77
2021/05/05 09:52:05;;;;;;;15.60;2.40;;;;;;;;;;4967106;28;47280;-77
2021/05/05 09:54:31;;;;;;;;;;;;;;;;;;4994176;28;47787;-78
2021/05/05 09:57:33;;;;;;;14.80;2.90;;;;;;;;;;4995494;28;37681;-79
2021/05/05 10:00:02;;;;;;;10.67;2.60;;;;;;;;;;4915861;28;48457;-79
2021/05/05 10:02:29;;;;;;;12.17;3.00;;;;;;;;;;4964292;28;40208;-78
2021/05/05 10:05:04;;;;;;;13.50;2.80;;;;;;;;;;4999810;28;38017;-79
2021/05/05 10:07:48;;;;;;;9.60;1.93;;;;;;;;;;4994203;28;47234;-78
2021/05/05 10:10:14;;;;;;;9.67;2.20;;;;;;;;;;4992882;28;38933;-78
2021/05/05 10:12:44;;;;;;;8.30;1.70;;;;;;;;;;4993830;28;38187;-78
2021/05/05 10:15:11;;;;;;;4.93;1.23;;;;;;;;;;4999182;28;38004;-78
2021/05/05 10:17:38;;;;;;;4.63;1.47;;;;;;;;;;4975119;28;36073;-78
2021/05/05 10:20:05;;;;;;;5.60;1.73;;;;;;;;;;4996123;28;40036;-78
2021/05/05 10:22:31;;;;;;;11.47;2.73;;;;;;;;;;4994746;28;37388;-78
2021/05/05 10:24:58;;;;;;;8.77;2.30;;;;;;;;;;4997334;28;39822;-79
2021/05/05 10:27:25;;;;;;;14.97;3.40;;;;;;;;;;4990338;28;35636;-78
2021/05/05 10:29:52;;;;;;;15.77;2.90;;;;;;;;;;4992350;28;39011;-77
2021/05/05 10:32:23;;;;;;;17.00;3.60;;;;;;;;;;4977423;28;37644;-78
2021/05/05 10:34:50;;;;;;;16.63;3.57;;;;;;;;;;4980929;28;38811;-78
2021/05/05 10:37:17;;;;;;;17.63;3.40;;;;;;;;;;4980444;28;37235;-79
2021/05/05 10:39:44;;;;;;;16.27;3.33;;;;;;;;;;4992749;28;37746;-78
2021/05/05 10:42:17;;;;;;;12.20;2.60;;;;;;;;;;4992436;28;40310;-77
2021/05/05 10:44:50;;;;;;;14.15;2.92;;;;;;;;;;5005259;28;38426;-79
2021/05/05 10:47:16;;;;;;;;;;;;;;;;;;4995252;28;37048;-78
2021/05/05 10:50:05;;;;;;;21.60;3.30;;;;;;;;;;5001879;28;39911;-78
2021/05/05 10:52:34;;;;;;;13.00;3.00;;;;;;;;;;5005859;28;47172;-78
2021/05/05 10:55:07;;;;;;;14.50;3.67;;;;;;;;;;4982973;28;39251;-77
2021/05/05 10:57:37;;;;;;;15.03;2.80;;;;;;;;;;5002415;28;47466;-78
2021/05/05 11:00:05;;;;;;;13.10;2.50;;;;;;;;;;4998283;28;39181;-79
2021/05/05 11:02:46;;;;;;;16.92;3.10;;;;;;;;;;4979072;28;38065;-77
2021/05/05 11:05:19;;;;;;;14.37;2.93;;;;;;;;;;5001006;28;39100;-78
2021/05/05 11:08:03;;;;;;;13.10;3.00;;;;;;;;;;4981371;28;37735;-78
2021/05/05 11:10:45;;;;;;;12.70;2.37;;;;;;;;;;4985417;28;47983;-78
2021/05/05 11:13:22;;;;;;;13.18;2.70;;;;;;;;;;4999580;28;38937;-77
2021/05/05 11:15:49;;;;;;;7.10;2.05;;;;;;;;;;4986873;28;36909;-78
2021/05/05 11:18:27;;;;;;;8.45;2.30;;;;;;;;;;4984132;28;37401;-77
2021/05/05 11:21:08;;;;;;;8.77;2.55;;;;;;;;;;4996875;28;39035;-78
2021/05/05 11:26:17;;;;;;;12.82;2.83;;;;;;;;;;5001391;28;38531;-78
2021/05/05 11:28:50;;;;;;;14.52;3.03;;;;;;;;;;4992163;28;47552;-78
2021/05/05 11:31:17;;;;;;;14.45;3.17;;;;;;;;;;4985872;28;37967;-78
2021/05/05 11:33:54;;;;;;;17.38;3.00;;;;;;;;;;4981306;28;38205;-78
2021/05/05 11:36:21;;;;;;;11.45;2.78;;;;;;;;;;4994753;28;39314;-78
2021/05/05 11:38:47;;;;;;;8.52;2.38;;;;;;;;;;4984653;28;37716;-78
2021/05/05 11:41:20;;;;;;;18.33;2.58;;;;;;;;;;4990339;28;40026;-78
2021/05/05 11:43:46;;;;;;;10.35;2.55;;;;;;;;;;4974880;28;37760;-78
2021/05/05 11:46:13;;;;;;;14.55;2.60;;;;;;;;;;4981520;28;38770;-78
2021/05/05 11:48:40;;;;;;;9.48;2.40;;;;;;;;;;4993686;28;36823;-78
2021/05/05 11:51:24;;;;;;;13.48;2.50;;;;;;;;;;4984182;28;39449;-79
2021/05/05 11:53:51;;;;;;;11.15;2.60;;;;;;;;;;4997610;28;38579;-80
2021/05/05 11:56:18;;;;;;;13.13;2.92;;;;;;;;;;4994760;28;39034;-78
2021/05/05 11:58:54;;;;;;;12.05;2.65;;;;;;;;;;4997975;28;36911;-77
2021/05/05 12:01:39;;;;;;;17.42;2.65;;;;;;;;;;4983630;28;40703;-78
2021/05/05 12:04:14;;;;;;;10.02;2.72;;;;;;;;;;4997447;28;39565;-77
2021/05/05 12:06:51;;;;;;;15.27;2.70;;;;;;;;;;4993637;28;38996;-78
2021/05/05 12:09:25;;;;;;;11.82;3.40;;;;;;;;;;5003214;28;37241;-78
2021/05/05 12:12:07;;;;;;;13.88;2.85;;;;;;;;;;5001115;28;40115;-78
2021/05/05 12:14:33;;;;;;;;;;;;;;;;;;4997387;28;46972;-78
2021/05/05 12:19:54;;;;;;;11.77;2.40;;;;;;;;;;5001447;28;50491;-78
2021/05/05 12:22:21;;;;;;;10.68;2.58;;;;;;;;;;4994931;28;39143;-77
2021/05/05 12:25:08;;;;;;;8.13;2.33;;;;;;;;;;4985917;28;40153;-77
2021/05/05 12:27:34;;;;;;;8.40;2.15;;;;;;;;;;4982508;28;47175;-77
2021/05/05 12:30:02;;;;;;;8.55;1.70;;;;;;;;;;5003251;28;36793;-77
2021/05/05 12:32:41;;;;;;;7.13;2.40;;;;;;;;;;4976350;28;48560;-78
2021/05/05 12:35:12;;;;;;;7.50;2.33;;;;;;;;;;4980229;28;39934;-77
2021/05/05 12:37:39;;;;;;;6.10;2.33;;;;;;;;;;4989466;28;38467;-78
2021/05/05 12:40:07;;;;;;;10.20;2.50;;;;;;;;;;4984541;28;37288;-77
2021/05/05 12:42:37;;;;;;;11.55;2.42;;;;;;;;;;4980321;28;39365;-78
2021/05/05 12:45:04;;;;;;;8.98;2.15;;;;;;;;;;4998274;28;38800;-76
2021/05/05 12:47:31;;;;;;;11.18;2.63;;;;;;;;;;4984911;28;47509;-77
2021/05/05 12:50:01;;;;;;;14.95;2.60;;;;;;;;;;4994536;28;36798;-78
2021/05/05 12:52:30;;;;;;;6.65;2.10;;;;;;;;;;4984635;28;48754;-77
2021/05/05 12:54:58;;;;;;;9.50;2.45;;;;;;;;;;4975946;28;39196;-78
2021/05/05 12:57:25;;;;;;;6.15;2.40;;;;;;;;;;4998697;28;37750;-77
2021/05/05 12:59:53;;;;;;;7.18;2.25;;;;;;;;;;4979192;28;37075;-77
2021/05/05 13:02:25;;;;;;;11.40;2.58;;;;;;;;;;5002098;28;38538;-77
2021/05/05 13:05:05;;;;;;;10.07;2.78;;;;;;;;;;4981446;28;39970;-78
2021/05/05 13:07:44;;;;;;;10.50;2.70;;;;;;;;;;4989195;28;47207;-77
2021/05/05 13:10:16;;;;;;;6.80;2.38;;;;;;;;;;4987871;28;36910;-77
2021/05/05 13:12:53;;;;;;;10.52;2.15;;;;;;;;;;4999194;28;39876;-78
2021/05/05 13:16:17;;;;;;;10.35;2.40;;;;;;;;;;4998579;28;38805;-78
2021/05/05 13:31:48;;;;;;;9.52;2.63;;;;;;;;;;4991942;28;50315;-78
2021/05/05 13:34:15;;;;;;;12.45;2.95;;;;;;;;;;4994846;28;38518;-77
2021/05/05 13:36:51;;;;;;;8.80;2.22;;;;;;;;;;4988059;28;38964;-78
2021/05/05 13:39:18;;;;;;;8.85;2.20;;;;;;;;;;4979774;28;39112;-77
2021/05/05 13:41:45;;;;;;;9.88;2.22;;;;;;;;;;4993563;28;37343;-78
2021/05/05 13:44:18;;;;;;;9.68;2.22;;;;;;;;;;4993616;28;39574;-78
2021/05/05 13:49:36;;;;;;;8.82;2.50;;;;;;;;;;4992633;28;38425;-78
2021/05/05 13:52:04;;;;;;;9.07;2.30;;;;;;;;;;4978168;28;37014;-78
2021/05/05 13:54:31;;;;;;;7.03;2.30;;;;;;;;;;4982696;28;39638;-78
2021/05/05 13:57:01;;;;;;;9.55;2.20;;;;;;;;;;4991363;28;40120;-78
2021/05/05 13:59:28;;;;;;;12.77;2.50;;;;;;;;;;4982769;28;47232;-78
2021/05/05 14:01:55;;;;;;;10.10;2.10;;;;;;;;;;4975647;28;36248;-78
2021/05/05 14:04:21;;;;;;;7.65;2.70;;;;;;;;;;4990150;28;39831;-76
2021/05/05 14:06:49;;;;;;;8.35;1.98;;;;;;;;;;4995581;28;39554;-77
2021/05/05 14:09:15;;;;;;;9.27;2.30;;;;;;;;;;4983762;28;37220;-78
2021/05/05 14:11:42;;;;;;;6.93;2.00;;;;;;;;;;4983595;28;35782;-78
2021/05/05 14:14:08;;;;;;;8.02;2.05;;;;;;;;;;4992056;28;38749;-79
2021/05/05 14:16:34;;;;;;;8.98;2.20;;;;;;;;;;4985932;28;37572;-79
2021/05/05 14:19:02;;;;;;;9.15;2.15;;;;;;;;;;5005523;28;36901;-79
2021/05/05 14:21:28;;;;;;;7.43;2.17;;;;;;;;;;4993631;28;48362;-79
2021/05/05 14:23:55;;;;;;;7.97;1.98;;;;;;;;;;4999673;28;38827;-78
2021/05/05 14:26:21;;;;;;;8.02;1.92;;;;;;;;;;4986170;28;37286;-79
2021/05/05 14:28:48;;;;;;;7.10;1.80;;;;;;;;;;4989279;28;37184;-78
2021/05/05 14:31:14;;;;;;;7.80;1.95;;;;;;;;;;4985175;28;36181;-78
2021/05/05 14:33:41;;;;;;;10.57;3.08;;;;;;;;;;4994782;28;39077;-78
2021/05/05 14:36:08;;;;;;;8.25;2.75;;;;;;;;;;4992559;28;39620;-79
2021/05/05 14:38:38;;;;;;;5.28;1.52;;;;;;;;;;4979753;28;37149;-78
2021/05/05 14:41:09;;;;;;;7.97;2.42;;;;;;;;;;4978990;28;34393;-79
2021/05/05 14:47:51;;;;;;;10.15;2.53;;;;;;;;;;4994121;28;39432;-79
2021/05/05 14:48:57;;;;;;;12.20;2.45;;;;;;;;;;4994072;28;49655;-79
2021/05/05 14:51:24;;;;;;;7.68;2.25;;;;;;;;;;4984047;28;35863;-78
2021/05/05 14:53:50;;;;;;;7.40;2.13;;;;;;;;;;4975014;28;38243;-78
2021/05/05 14:56:17;;;;;;;6.50;2.25;;;;;;;;;;5001327;28;39388;-78
2021/05/05 14:58:52;;;;;;;7.65;2.10;;;;;;;;;;4990376;28;36786;-79
2021/05/05 15:01:21;;;;;;;6.93;2.05;;;;;;;;;;4987569;28;35823;-78
2021/05/05 15:03:47;;;;;;;5.95;1.92;;;;;;;;;;5001982;28;39130;-78
2021/05/05 15:06:17;;;;;;;7.50;1.85;;;;;;;;;;4983209;28;37442;-79
2021/05/05 15:08:53;;;;;;;7.13;2.13;;;;;;;;;;4988954;28;37100;-79
2021/05/05 15:36:02;;;;;;;7.57;2.20;;;;;;;;;;4999290;28;40436;-79